• Join FlightAware (Why Join?)
  • Login
  • US Flag 
01:18AM EST


 

Airport Tracker/Info


-or-


 

Live Flight TrackerFlight Track Log ✈ FIN666 ✈ 18-Dec-2013 ✈ EKCH / CPH - EFHK / HEL

Flight Track Log - Related Links

Times and Time Zones

All times are in EST time to prevent confusion due to time zone crossing. See the FIN666 flight status page for this flight to view local times or setup timezone preferences in your user account.

Time Position Orientation Groundspeed Altitude Reporting Facility
EST Latitude Longitude Course Direction KTS MPH feet Rate Location/Type
07:25AM 55.9081 13.2574 49° Northeast  Level Estimated
07:26AM 55.9802 13.4092 50° Northeast  Level Estimated
07:27AM 56.0521 13.5615 50° Northeast  Level Estimated
07:28AM 56.1238 13.7144 50° Northeast  Level Estimated
07:29AM 56.1953 13.8679 50° Northeast  Level Estimated
07:30AM 56.2687 14.0264 50° Northeast  Level Estimated
07:31AM 56.3419 14.1854 50° Northeast  Level Estimated
07:32AM 56.4148 14.3451 50° Northeast  Level Estimated
07:33AM 56.4876 14.5054 51° Northeast  Level Estimated
07:34AM 56.5601 14.6663 51° Northeast  Level Estimated
07:35AM 56.6325 14.8278 51° Northeast  Level Estimated
07:36AM 56.7046 14.9899 51° Northeast  Level Estimated
07:37AM 56.7765 15.1527 51° Northeast  Level Estimated
07:38AM 56.8482 15.3161 51° Northeast  Level Estimated
07:39AM 56.9197 15.4801 51° Northeast  Level Estimated
07:40AM 56.9910 15.6447 51° Northeast  Level Estimated
07:41AM 57.0620 15.8100 52° Northeast  Level Estimated
07:42AM 57.1329 15.9759 52° Northeast  Level Estimated
07:43AM 57.2035 16.1424 52° Northeast  Level Estimated
07:44AM 57.2739 16.3096 52° Northeast  Level Estimated
07:45AM 57.3441 16.4774 52° Northeast  Level Estimated
07:46AM 57.4140 16.6459 52° Northeast  Level Estimated
07:47AM 57.4837 16.8150 52° Northeast  Level Estimated
07:48AM 57.5532 16.9847 53° Northeast  Level Estimated
07:49AM 57.6225 17.1551 53° Northeast  Level Estimated
07:50AM 57.6916 17.3262 53° Northeast  Level Estimated
07:51AM 57.7604 17.4979 53° Northeast  Level Estimated
07:52AM 57.8289 17.6702 53° Northeast  Level Estimated
07:53AM 57.8973 17.8432 53° Northeast  Level Estimated
07:54AM 57.9654 18.0169 53° Northeast  Level Estimated
07:55AM 58.0332 18.1912 54° Northeast  Level Estimated
07:56AM 58.1009 18.3662 54° Northeast  Level Estimated
07:57AM 58.1683 18.5418 54° Northeast  Level Estimated
07:58AM 58.2354 18.7181 54° Northeast  Level Estimated
07:59AM 58.3023 18.8951 54° Northeast  Level Estimated
08:00AM 58.3690 19.0728 54° Northeast  Level Estimated
08:01AM 58.4354 19.2511 55° Northeast  Level Estimated
08:02AM 58.5015 19.4301 55° Northeast  Level Estimated
08:03AM 58.5674 19.6098 55° Northeast  Level Estimated
08:04AM 58.6331 19.7901 55° Northeast  Level Estimated
08:05AM 58.6985 19.9711 55° Northeast  Level Estimated
08:06AM 58.7636 20.1528 55° Northeast  Level Estimated
08:07AM 58.8285 20.3352 55° Northeast  Level Estimated
08:08AM 58.8932 20.5183 56° Northeast  Level Estimated
08:09AM 58.9576 20.7020 56° Northeast  Level Estimated
08:10AM 59.0217 20.8865 56° Northeast  Level Estimated
08:11AM 59.0855 21.0716 56° Northeast  Level Estimated
08:12AM 59.1491 21.2574 56° Northeast  Level Estimated
08:13AM 59.2124 21.4439 56° Northeast  Level Estimated
08:14AM 59.2746 21.6285 57° Northeast  Level Estimated
08:15AM 59.3365 21.8137 57° Northeast  Level Estimated
08:16AM 59.3981 21.9996 57° Northeast  Level Estimated
08:17AM 59.4595 22.1862 57° Northeast  Level Estimated
08:18AM 59.5206 22.3735 57° Northeast  Level Estimated
08:19AM 59.5815 22.5614 57° Northeast  Level Estimated
08:20AM 59.6420 22.7500 58° Northeast  Level Estimated
08:21AM 59.7023 22.9393 58° Northeast  Level Estimated
08:22AM 59.7624 23.1293 58° Northeast  Level Estimated
08:23AM 59.8221 23.3200 58° Northeast  Level Estimated
08:24AM 59.8816 23.5113 58° Northeast  Level Estimated
08:25AM 59.9408 23.7033 58° Northeast  Level Estimated
08:26AM 59.9997 23.8960 58° Northeast  Level Estimated
08:27AM 60.0583 24.0895 59° Northeast  Level Estimated
08:28AM 60.1167 24.2835 59° Northeast  Level Estimated
08:29AM 60.1748 24.4783 59° Northeast  Level Estimated
08:30AM 60.2325 24.6738 59° Northeast  Level Estimated
08:31AM 60.2900 24.8699 59° Northeast  Level Estimated
08:32AM 60.3172 24.9633 60° Northeast  Level Estimated
08:33AM 60.3172 24.9633 37° Northeast  Level Estimated
08:34AM 60.3172 24.9633 37° Northeast  Level Estimated
08:35AM 60.3172 24.9633 37° Northeast  Level Estimated
08:36AM 60.3172 24.9633 37° Northeast  Level Estimated
08:37AM 60.3172 24.9633 37° Northeast  Level Estimated
08:38AM 60.3172 24.9633 37° Northeast  Level Estimated
08:39AM 60.3172 24.9633 37° Northeast  Level Estimated
08:40AM 60.3172 24.9633 37° Northeast  Level Estimated
08:41AM 60.3172 24.9633 37° Northeast  Level Estimated
08:42AM 60.3172 24.9633 37° Northeast  Level Estimated
08:43AM 60.3172 24.9633 37° Northeast  Level Estimated
08:44AM 60.3172 24.9633 37° Northeast  Level Estimated
08:45AM 60.3172 24.9633 37° Northeast  Level Estimated
08:46AM 60.3172 24.9633 37° Northeast  Level Estimated